Weather at R-Ranch Airstrip

Public forecast

Using degrees Fahrenheit for public forecast. Weather courtesy of forecast.io.

Closest aviation weather report (METAR) to R-Ranch Airstrip

Closest report is Majors Airport, 15.4 nm (28.4 km) SE.

2024/05/17 23:15 (retrieved 28 minutes ago)

KGVT 172315Z AUTO 28005KT 10SM SCT070 28/16 A2975 RMK AO2 TSNO T02750162

Closest aviation forecast (TAF) to R-Ranch Airstrip

Closest forecast is Dallas Love Field, 37.0 nm (68.5 km) SW.

2024/05/17 21:00 Ammendment (retrieved 3 hours ago)

TAF AMD KDAL 172057Z 1721/1818 28007KT P6SM SCT050 FM180000 20004KT P6SM SCT250